createdAt,value
2023-04-25T00:00:23.235Z,100.00
2023-04-25T00:02:52.427Z,100.00
2023-04-25T00:05:20.802Z,100.00
2023-04-25T00:07:48.459Z,100.00
2023-04-25T00:10:16.096Z,100.00
2023-04-25T00:12:43.803Z,100.00
2023-04-25T00:15:12.246Z,100.00
2023-04-25T00:17:40.278Z,100.00
2023-04-25T00:20:11.426Z,100.00
2023-04-25T00:22:39.288Z,100.00
2023-04-25T00:25:07.680Z,100.00
2023-04-25T00:27:35.414Z,100.00
2023-04-25T00:30:03.604Z,100.00
2023-04-25T00:32:31.374Z,100.00
2023-04-25T00:34:59.592Z,100.00
2023-04-25T00:37:28.746Z,100.00
2023-04-25T00:39:57.012Z,100.00
2023-04-25T00:42:24.564Z,100.00
2023-04-25T00:44:54.316Z,100.00
2023-04-25T00:47:21.999Z,100.00
2023-04-25T00:49:49.638Z,100.00
2023-04-25T00:52:17.270Z,100.00
2023-04-25T00:54:46.184Z,100.00
2023-04-25T00:57:13.788Z,100.00
2023-04-25T00:59:46.988Z,100.00
2023-04-25T01:02:14.940Z,100.00
2023-04-25T01:04:42.605Z,100.00
2023-04-25T01:07:11.626Z,100.00
2023-04-25T01:09:39.467Z,100.00
2023-04-25T01:12:08.952Z,100.00
2023-04-25T01:14:36.589Z,100.00
2023-04-25T01:17:04.767Z,100.00
2023-04-25T01:19:32.562Z,100.00
2023-04-25T01:22:02.004Z,100.00
2023-04-25T01:24:29.801Z,100.00
2023-04-25T01:26:58.014Z,100.00
2023-04-25T01:29:25.984Z,100.00
2023-04-25T01:31:54.363Z,100.00
2023-04-25T01:34:22.350Z,100.00
2023-04-25T01:36:51.478Z,100.00
2023-04-25T01:39:21.051Z,100.00
2023-04-25T01:41:49.258Z,100.00
2023-04-25T01:44:17.448Z,100.00
2023-04-25T01:46:45.288Z,100.00
2023-04-25T01:49:13.434Z,100.00
2023-04-25T01:51:41.113Z,100.00
2023-04-25T01:54:09.960Z,100.00
2023-04-25T01:56:41.090Z,100.00
2023-04-25T01:59:08.733Z,100.00
2023-04-25T02:01:36.334Z,100.00
2023-04-25T02:04:04.181Z,100.00
2023-04-25T02:06:31.920Z,100.00
2023-04-25T02:08:59.484Z,100.00
2023-04-25T02:11:27.177Z,100.00
2023-04-25T02:13:56.116Z,100.00
2023-04-25T02:16:24.469Z,100.00
2023-04-25T02:18:53.711Z,100.00
2023-04-25T02:21:21.462Z,100.00
2023-04-25T02:23:50.548Z,99.54
2023-04-25T02:26:19.512Z,98.74
2023-04-25T02:28:47.142Z,99.75
2023-04-25T02:31:16.217Z,100.00
2023-04-25T02:33:44.397Z,100.00
2023-04-25T02:36:12.242Z,100.00
2023-04-25T02:38:40.692Z,100.00
2023-04-25T02:41:08.410Z,100.00
2023-04-25T02:43:36.044Z,100.00
2023-04-25T02:46:03.811Z,100.00
2023-04-25T02:48:32.782Z,100.00
2023-04-25T02:51:00.480Z,100.00
2023-04-25T02:53:28.143Z,100.00
2023-04-25T02:55:55.807Z,100.00
2023-04-25T02:58:23.546Z,100.00
2023-04-25T03:00:51.430Z,100.00
2023-04-25T03:03:22.557Z,100.00
2023-04-25T03:05:52.663Z,100.00
2023-04-25T03:08:20.816Z,100.00
2023-04-25T03:10:48.699Z,100.00
2023-04-25T03:13:16.539Z,98.58
2023-04-25T03:15:44.215Z,98.58
2023-04-25T03:18:12.024Z,99.32
2023-04-25T03:20:40.463Z,99.12
2023-04-25T03:23:09.485Z,97.85
2023-04-25T03:25:37.115Z,98.59
2023-04-25T03:28:04.750Z,98.58
2023-04-25T03:30:32.296Z,98.33
2023-04-25T03:33:00.422Z,99.00
2023-04-25T03:35:28.006Z,99.17
2023-04-25T03:37:55.794Z,98.19
2023-04-25T03:40:24.872Z,99.27
2023-04-25T03:42:52.531Z,99.74
2023-04-25T03:45:20.333Z,99.52
2023-04-25T03:47:48.004Z,100.00
2023-04-25T03:50:15.617Z,100.00
2023-04-25T03:52:43.241Z,100.00
2023-04-25T03:55:11.005Z,100.00
2023-04-25T03:57:40.153Z,100.00
2023-04-25T04:00:09.177Z,100.00
2023-04-25T04:02:38.594Z,100.00
2023-04-25T04:05:07.814Z,100.00
2023-04-25T04:07:40.631Z,100.00
2023-04-25T04:10:09.372Z,99.01
2023-04-25T04:12:37.181Z,99.05
2023-04-25T04:15:07.910Z,100.00
2023-04-25T04:17:35.839Z,100.00
2023-04-25T04:20:05.208Z,100.00
2023-04-25T04:22:32.828Z,100.00
2023-04-25T04:25:00.537Z,100.00
2023-04-25T04:27:29.666Z,100.00
2023-04-25T04:29:58.552Z,100.00
2023-04-25T04:32:28.611Z,100.00
2023-04-25T04:34:56.885Z,98.43
2023-04-25T04:37:25.010Z,86.69
2023-04-25T04:39:52.869Z,86.79
2023-04-25T04:42:20.537Z,86.24
2023-04-25T04:44:48.376Z,85.49
2023-04-25T04:47:16.000Z,84.71
2023-04-25T04:49:45.587Z,84.22
2023-04-25T04:52:13.138Z,83.67
2023-04-25T04:54:40.877Z,82.22
2023-04-25T04:57:08.617Z,80.49
2023-04-25T04:59:36.267Z,80.23
2023-04-25T05:02:03.946Z,80.58
2023-04-25T05:04:31.772Z,80.39
2023-04-25T05:07:00.821Z,81.00
2023-04-25T05:09:28.786Z,79.79
2023-04-25T05:11:56.434Z,79.72
2023-04-25T05:14:24.272Z,79.43
2023-04-25T05:16:52.639Z,80.72
2023-04-25T05:19:20.361Z,78.17
2023-04-25T05:21:48.363Z,78.32
2023-04-25T05:24:17.486Z,78.48
2023-04-25T05:26:45.196Z,78.26
2023-04-25T05:29:13.068Z,77.95
2023-04-25T05:31:40.725Z,77.46
2023-04-25T05:34:08.520Z,77.19
2023-04-25T05:36:36.316Z,76.37
2023-04-25T05:39:05.263Z,75.94
2023-04-25T05:41:34.202Z,73.59
2023-04-25T05:44:01.898Z,69.41
2023-04-25T05:46:29.681Z,64.50
2023-04-25T05:48:57.339Z,60.93
2023-04-25T05:51:25.050Z,57.26
2023-04-25T05:53:52.954Z,55.89
2023-04-25T05:56:20.848Z,53.09
2023-04-25T05:58:49.810Z,55.01
2023-04-25T06:01:17.820Z,54.24
2023-04-25T06:03:45.936Z,56.67
2023-04-25T06:06:13.795Z,58.28
2023-04-25T06:08:42.162Z,56.93
2023-04-25T06:11:09.797Z,58.77
2023-04-25T06:13:37.591Z,57.93
2023-04-25T06:16:07.330Z,58.19
2023-04-25T06:18:34.988Z,59.00
2023-04-25T06:21:03.493Z,58.23
2023-04-25T06:23:31.079Z,57.40
2023-04-25T06:25:58.820Z,57.41
2023-04-25T06:28:26.495Z,54.22
2023-04-25T06:30:54.272Z,52.06
2023-04-25T06:33:25.193Z,50.32
2023-04-25T06:35:52.789Z,49.50
2023-04-25T06:38:20.550Z,48.88
2023-04-25T06:40:48.275Z,46.44
2023-04-25T06:43:15.878Z,47.32
2023-04-25T06:45:44.788Z,45.82
2023-04-25T06:48:14.126Z,45.61
2023-04-25T06:50:43.292Z,46.70
2023-04-25T06:53:13.251Z,47.89
2023-04-25T06:55:41.382Z,48.81
2023-04-25T06:58:09.138Z,49.70
2023-04-25T07:00:37.147Z,51.25
2023-04-25T07:03:04.998Z,51.71
2023-04-25T07:05:32.859Z,50.78
2023-04-25T07:08:02.345Z,47.06
2023-04-25T07:10:29.961Z,46.24
2023-04-25T07:12:57.702Z,45.71
2023-04-25T07:15:25.801Z,47.09
2023-04-25T07:17:53.662Z,47.34
2023-04-25T07:20:21.793Z,47.57
2023-04-25T07:22:49.377Z,50.64
2023-04-25T07:25:20.838Z,49.19
2023-04-25T07:27:48.448Z,51.27
2023-04-25T07:30:16.740Z,51.31
2023-04-25T07:32:44.412Z,51.27
2023-04-25T07:35:12.179Z,51.11
2023-04-25T07:37:39.893Z,50.06
2023-04-25T07:40:08.854Z,51.99
2023-04-25T07:42:37.959Z,52.86
2023-04-25T07:45:06.390Z,49.90
2023-04-25T07:47:34.012Z,48.96
2023-04-25T07:50:02.997Z,50.38
2023-04-25T07:52:31.062Z,50.97
2023-04-25T07:54:59.572Z,49.20
2023-04-25T07:57:27.134Z,48.80
2023-04-25T07:59:56.175Z,48.86
2023-04-25T08:02:23.884Z,48.38
2023-04-25T08:04:53.162Z,48.26
2023-04-25T08:07:20.899Z,47.99
2023-04-25T08:09:48.458Z,47.65
2023-04-25T08:12:16.164Z,47.28
2023-04-25T08:14:46.165Z,47.47
2023-04-25T08:17:15.240Z,47.83
2023-04-25T08:19:43.064Z,47.59
2023-04-25T08:22:10.807Z,49.88
2023-04-25T08:24:39.469Z,50.32
2023-04-25T08:27:08.568Z,49.12
2023-04-25T08:29:36.984Z,50.03
2023-04-25T08:32:04.584Z,50.67
2023-04-25T08:34:33.499Z,48.96
2023-04-25T08:37:01.356Z,49.23
2023-04-25T08:39:29.124Z,48.49
2023-04-25T08:41:57.911Z,46.80
2023-04-25T08:44:26.656Z,47.58
2023-04-25T08:46:54.480Z,49.27
2023-04-25T08:49:22.150Z,48.39
2023-04-25T08:51:52.694Z,47.75
2023-04-25T08:54:34.442Z,49.04
2023-04-25T08:57:05.134Z,48.54
2023-04-25T08:59:34.308Z,48.96
2023-04-25T09:02:02.983Z,49.54
2023-04-25T09:04:32.520Z,47.66
2023-04-25T09:07:01.470Z,46.22
2023-04-25T09:09:29.353Z,46.92
2023-04-25T09:11:57.097Z,47.79
2023-04-25T09:14:28.859Z,48.21
2023-04-25T09:17:01.922Z,47.98
2023-04-25T09:19:40.256Z,47.40
2023-04-25T09:22:10.858Z,46.87
2023-04-25T09:24:40.898Z,46.75
2023-04-25T09:27:09.400Z,46.70
2023-04-25T09:29:38.975Z,47.33
2023-04-25T09:32:14.926Z,47.06
2023-04-25T09:34:44.245Z,48.01
2023-04-25T09:37:13.909Z,47.01
2023-04-25T09:39:41.839Z,46.85
2023-04-25T09:42:11.426Z,45.44
2023-04-25T09:44:39.212Z,44.20
2023-04-25T09:47:11.930Z,43.97
2023-04-25T09:49:45.766Z,45.75
2023-04-25T09:52:18.478Z,45.31
2023-04-25T09:54:46.734Z,45.82
2023-04-25T09:57:15.812Z,45.33
2023-04-25T09:59:47.982Z,44.57
2023-04-25T10:02:17.424Z,45.12
2023-04-25T10:04:49.224Z,45.58
2023-04-25T10:07:19.777Z,45.30
2023-04-25T10:09:50.706Z,45.14
2023-04-25T10:12:18.780Z,44.81
2023-04-25T10:14:46.492Z,45.21
2023-04-25T10:17:14.626Z,45.42
2023-04-25T10:19:42.315Z,43.75
2023-04-25T10:22:15.043Z,45.94
2023-04-25T10:24:45.085Z,44.99
2023-04-25T10:27:13.012Z,45.70
2023-04-25T10:29:40.754Z,45.96
2023-04-25T10:32:08.537Z,46.51
2023-04-25T10:34:42.004Z,47.67
2023-04-25T10:37:12.928Z,48.02
2023-04-25T10:39:42.378Z,50.45
2023-04-25T10:42:11.345Z,53.20
2023-04-25T10:44:40.274Z,53.96
2023-04-25T10:47:11.741Z,54.16
2023-04-25T10:49:43.230Z,54.86
2023-04-25T10:52:26.424Z,55.39
2023-04-25T10:54:55.913Z,55.82
2023-04-25T10:57:32.409Z,55.66
2023-04-25T11:00:07.390Z,55.75
2023-04-25T11:02:39.799Z,54.81
2023-04-25T11:05:08.699Z,54.87
2023-04-25T11:07:40.745Z,53.98
2023-04-25T11:10:09.169Z,53.72
2023-04-25T11:12:38.302Z,53.06
2023-04-25T11:15:07.687Z,51.41
2023-04-25T11:17:36.396Z,51.95
2023-04-25T11:20:07.448Z,52.64
2023-04-25T11:22:35.872Z,51.32
2023-04-25T11:25:07.816Z,51.67
2023-04-25T11:27:35.737Z,51.38
2023-04-25T11:30:17.508Z,51.00
2023-04-25T11:32:45.157Z,51.02
2023-04-25T11:35:13.353Z,50.16
2023-04-25T11:37:42.010Z,50.25
2023-04-25T11:40:12.490Z,50.43
2023-04-25T11:42:41.036Z,47.86
2023-04-25T11:45:10.575Z,45.75
2023-04-25T11:47:39.973Z,44.84
2023-04-25T11:50:09.686Z,45.36
2023-04-25T11:52:41.567Z,46.95
2023-04-25T11:55:11.559Z,45.89
2023-04-25T11:57:41.053Z,46.62
2023-04-25T12:00:18.683Z,46.25
2023-04-25T12:02:50.368Z,46.44
2023-04-25T12:07:50.565Z,46.53
2023-04-25T12:10:20.014Z,47.08
2023-04-25T12:12:50.180Z,46.03
2023-04-25T12:15:20.518Z,46.71
2023-04-25T12:17:50.834Z,45.99
2023-04-25T12:20:20.682Z,46.49
2023-04-25T12:22:51.573Z,46.63
2023-04-25T12:25:37.617Z,47.62
2023-04-25T12:28:13.192Z,47.25
2023-04-25T12:31:01.714Z,47.25
2023-04-25T12:33:32.932Z,46.92
2023-04-25T12:36:06.285Z,47.59
2023-04-25T12:38:38.444Z,48.84
2023-04-25T12:41:06.438Z,48.42
2023-04-25T12:43:34.534Z,47.99
2023-04-25T12:46:02.993Z,47.61
2023-04-25T12:48:32.245Z,47.00
2023-04-25T12:50:59.938Z,46.63
2023-04-25T12:53:27.621Z,46.21
2023-04-25T12:58:27.830Z,46.53
2023-04-25T13:00:55.830Z,46.33
2023-04-25T13:03:24.109Z,47.02
2023-04-25T13:05:53.747Z,46.10
2023-04-25T13:08:21.745Z,44.42
2023-04-25T13:10:49.704Z,42.71
2023-04-25T13:13:17.509Z,43.75
2023-04-25T13:15:47.652Z,43.39
2023-04-25T13:18:15.372Z,43.80
2023-04-25T13:20:43.058Z,43.86
2023-04-25T13:23:12.003Z,43.53
2023-04-25T13:25:39.599Z,44.70
2023-04-25T13:28:07.258Z,45.09
2023-04-25T13:30:35.147Z,44.68
2023-04-25T13:33:04.349Z,45.04
2023-04-25T13:35:33.069Z,45.06
2023-04-25T13:38:00.878Z,44.09
2023-04-25T13:40:29.994Z,43.83
2023-04-25T13:42:58.097Z,44.05
2023-04-25T13:45:25.994Z,42.75
2023-04-25T13:47:53.734Z,43.61
2023-04-25T13:50:21.436Z,44.02
2023-04-25T13:52:49.093Z,43.42
2023-04-25T13:55:16.942Z,42.11
2023-04-25T13:57:46.623Z,43.17
2023-04-25T14:00:15.319Z,43.61
2023-04-25T14:02:43.074Z,43.60
2023-04-25T14:05:11.405Z,44.40
2023-04-25T14:07:39.509Z,43.80
2023-04-25T14:10:08.237Z,43.67
2023-04-25T14:12:36.134Z,43.66
2023-04-25T14:15:06.153Z,43.27
2023-04-25T14:17:33.836Z,42.71
2023-04-25T14:20:01.644Z,42.54
2023-04-25T14:22:29.529Z,41.89
2023-04-25T14:24:57.127Z,41.38
2023-04-25T14:27:25.402Z,40.55
2023-04-25T14:29:54.265Z,40.09
2023-04-25T14:32:23.609Z,42.35
2023-04-25T14:34:51.154Z,41.21
2023-04-25T14:37:18.976Z,41.99
2023-04-25T14:39:46.643Z,41.23
2023-04-25T14:42:14.318Z,41.54
2023-04-25T14:44:42.162Z,42.00
2023-04-25T14:47:09.944Z,40.93
2023-04-25T14:49:38.943Z,41.88
2023-04-25T14:52:06.915Z,41.30
2023-04-25T14:54:34.541Z,41.18
2023-04-25T14:57:03.141Z,42.49
2023-04-25T14:59:30.814Z,42.28
2023-04-25T15:02:00.971Z,41.27
2023-04-25T15:04:28.703Z,41.62
2023-04-25T15:06:58.185Z,41.62
2023-04-25T15:09:25.896Z,41.58
2023-04-25T15:11:53.499Z,41.63
2023-04-25T15:14:21.315Z,41.95
2023-04-25T15:16:49.017Z,42.42
2023-04-25T15:19:16.869Z,42.97
2023-04-25T15:21:45.329Z,43.26
2023-04-25T15:24:16.024Z,43.40
2023-04-25T15:26:43.817Z,42.96
2023-04-25T15:29:11.558Z,42.44
2023-04-25T15:31:39.416Z,42.66
2023-04-25T15:34:07.317Z,41.02
2023-04-25T15:36:35.358Z,41.17
2023-04-25T15:39:03.937Z,40.13
2023-04-25T15:41:33.041Z,42.18
2023-04-25T15:44:01.880Z,43.05
2023-04-25T15:46:31.172Z,43.00
2023-04-25T15:48:59.053Z,43.08
2023-04-25T15:51:26.922Z,43.32
2023-04-25T15:53:54.779Z,44.13
2023-04-25T15:56:22.422Z,44.15
2023-04-25T15:58:51.632Z,44.38
2023-04-25T16:01:22.131Z,43.93
2023-04-25T16:03:50.348Z,43.47
2023-04-25T16:06:18.175Z,43.55
2023-04-25T16:08:45.850Z,41.51
2023-04-25T16:11:14.676Z,41.83
2023-04-25T16:13:42.377Z,41.97
2023-04-25T16:16:11.444Z,41.38
2023-04-25T16:18:39.563Z,40.64
2023-04-25T16:21:07.435Z,41.04
2023-04-25T16:23:35.062Z,41.68
2023-04-25T16:26:02.938Z,41.06
2023-04-25T16:28:30.794Z,41.93
2023-04-25T16:30:58.580Z,40.06
2023-04-25T16:33:28.087Z,39.87
2023-04-25T16:35:55.827Z,41.20
2023-04-25T16:38:23.900Z,42.02
2023-04-25T16:40:51.578Z,42.97
2023-04-25T16:43:20.903Z,43.57
2023-04-25T16:45:50.066Z,43.38
2023-04-25T16:48:19.799Z,43.79
2023-04-25T16:50:50.267Z,43.98
2023-04-25T16:53:17.980Z,44.74
2023-04-25T16:55:47.173Z,45.75
2023-04-25T16:58:14.845Z,44.06
2023-04-25T17:00:43.054Z,44.07
2023-04-25T17:03:11.246Z,44.64
2023-04-25T17:05:39.597Z,44.58
2023-04-25T17:08:15.988Z,45.02
2023-04-25T17:10:45.049Z,46.10
2023-04-25T17:13:15.038Z,46.63
2023-04-25T17:15:42.806Z,45.76
2023-04-25T17:18:11.059Z,46.59
2023-04-25T17:20:38.966Z,45.43
2023-04-25T17:23:07.937Z,45.65
2023-04-25T17:25:35.997Z,44.89
2023-04-25T17:28:03.811Z,44.35
2023-04-25T17:30:31.993Z,44.19
2023-04-25T17:32:59.960Z,45.13
2023-04-25T17:35:27.850Z,44.71
2023-04-25T17:37:55.508Z,45.04
2023-04-25T17:40:24.589Z,46.01
2023-04-25T17:42:52.540Z,45.10
2023-04-25T17:45:20.134Z,45.82
2023-04-25T17:47:49.843Z,45.73
2023-04-25T17:50:17.489Z,45.74
2023-04-25T17:52:48.379Z,46.17
2023-04-25T17:55:16.333Z,46.40
2023-04-25T17:57:45.339Z,47.20
2023-04-25T18:00:13.733Z,45.93
2023-04-25T18:02:41.694Z,45.45
2023-04-25T18:05:10.716Z,45.17
2023-04-25T18:07:38.712Z,44.96
2023-04-25T18:10:07.647Z,44.80
2023-04-25T18:12:35.840Z,45.98
2023-04-25T18:15:06.909Z,45.70
2023-04-25T18:17:39.798Z,45.39
2023-04-25T18:20:09.993Z,45.96
2023-04-25T18:22:38.955Z,46.48
2023-04-25T18:25:08.367Z,47.37
2023-04-25T18:27:37.330Z,47.72
2023-04-25T18:30:08.775Z,48.40
2023-04-25T18:32:36.622Z,48.73
2023-04-25T18:35:04.463Z,49.05
2023-04-25T18:37:32.221Z,48.68
2023-04-25T18:40:06.088Z,49.20
2023-04-25T18:42:33.903Z,49.86
2023-04-25T18:45:01.615Z,50.69
2023-04-25T18:47:30.599Z,50.16
2023-04-25T18:49:58.338Z,50.24
2023-04-25T18:52:26.259Z,50.82
2023-04-25T18:54:54.214Z,50.45
2023-04-25T18:57:22.183Z,51.27
2023-04-25T18:59:49.841Z,50.42
2023-04-25T19:02:18.646Z,50.62
2023-04-25T19:04:47.807Z,51.23
2023-04-25T19:07:15.841Z,50.82
2023-04-25T19:09:43.508Z,51.01
2023-04-25T19:12:11.282Z,51.32
2023-04-25T19:14:39.001Z,51.17
2023-04-25T19:17:06.796Z,50.92
2023-04-25T19:19:34.776Z,51.13
2023-04-25T19:22:04.925Z,51.74
2023-04-25T19:24:34.483Z,51.97
2023-04-25T19:27:03.896Z,51.66
2023-04-25T19:29:33.248Z,51.42
2023-04-25T19:32:03.411Z,51.47
2023-04-25T19:34:31.227Z,51.28
2023-04-25T19:36:59.001Z,51.23
2023-04-25T19:39:28.105Z,51.38
2023-04-25T19:41:56.643Z,51.29
2023-04-25T19:44:25.026Z,51.16
2023-04-25T19:46:52.925Z,51.20
2023-04-25T19:49:21.218Z,52.28
2023-04-25T19:51:48.893Z,52.37
2023-04-25T19:54:16.737Z,50.89
2023-04-25T19:56:45.781Z,51.80
2023-04-25T19:59:13.636Z,50.73
2023-04-25T20:01:41.315Z,51.76
2023-04-25T20:04:08.935Z,50.77
2023-04-25T20:06:36.725Z,50.86
2023-04-25T20:09:06.212Z,50.39
2023-04-25T20:11:34.047Z,51.20
2023-04-25T20:14:03.088Z,51.28
2023-04-25T20:16:31.227Z,51.60
2023-04-25T20:19:00.150Z,51.31
2023-04-25T20:21:28.813Z,51.35
2023-04-25T20:23:56.501Z,51.52
2023-04-25T20:26:24.126Z,51.48
2023-04-25T20:28:52.001Z,51.47
2023-04-25T20:31:22.155Z,51.51
2023-04-25T20:33:50.351Z,51.81
2023-04-25T20:36:19.607Z,52.27
2023-04-25T20:38:47.928Z,52.81
2023-04-25T20:41:16.066Z,53.03
2023-04-25T20:43:43.752Z,52.41
2023-04-25T20:46:12.306Z,52.98
2023-04-25T20:48:41.328Z,52.95
2023-04-25T20:51:08.953Z,53.18
2023-04-25T20:53:36.539Z,54.18
2023-04-25T20:56:04.470Z,54.68
2023-04-25T20:58:32.606Z,54.96
2023-04-25T21:01:01.206Z,55.37
2023-04-25T21:03:29.202Z,55.64
2023-04-25T21:05:58.484Z,56.15
2023-04-25T21:08:26.219Z,56.15
2023-04-25T21:10:54.457Z,56.84
2023-04-25T21:13:22.315Z,56.90
2023-04-25T21:15:49.910Z,56.82
2023-04-25T21:18:17.652Z,56.80
2023-04-25T21:20:45.705Z,57.41
2023-04-25T21:23:15.517Z,58.38
2023-04-25T21:25:43.500Z,57.74
2023-04-25T21:28:11.530Z,58.20
2023-04-25T21:30:39.196Z,58.28
2023-04-25T21:33:07.265Z,58.11
2023-04-25T21:35:34.977Z,58.56
2023-04-25T21:38:02.824Z,59.02
2023-04-25T21:40:32.039Z,59.49
2023-04-25T21:43:00.133Z,58.95
2023-04-25T21:45:29.093Z,58.88
2023-04-25T21:47:56.830Z,58.75
2023-04-25T21:50:24.859Z,58.67
2023-04-25T21:56:34.506Z,59.43
2023-04-25T21:59:02.121Z,59.48
2023-04-25T22:01:29.818Z,59.54
2023-04-25T22:03:57.602Z,60.06
2023-04-25T22:06:25.365Z,60.34
2023-04-25T22:08:53.226Z,60.42
2023-04-25T22:11:24.248Z,60.93
2023-04-25T22:13:54.417Z,60.04
2023-04-25T22:16:21.995Z,59.65
2023-04-25T22:18:52.086Z,59.38
2023-04-25T22:21:19.785Z,58.92
2023-04-25T22:23:47.590Z,59.11
2023-04-25T22:26:15.212Z,59.33
2023-04-25T22:28:42.858Z,59.15
2023-04-25T22:31:11.776Z,59.67
2023-04-25T22:33:39.672Z,60.14
2023-04-25T22:36:07.759Z,60.61
2023-04-25T22:38:35.279Z,59.89
2023-04-25T22:41:03.324Z,59.57
2023-04-25T22:43:30.831Z,59.80
2023-04-25T22:45:58.835Z,60.00
2023-04-25T22:48:27.851Z,59.52
2023-04-25T22:51:02.757Z,59.96
2023-04-25T22:53:31.980Z,59.56
2023-04-25T22:55:59.719Z,60.05
2023-04-25T22:58:28.854Z,60.19
2023-04-25T23:00:57.515Z,59.42
2023-04-25T23:03:25.458Z,60.10
2023-04-25T23:05:54.557Z,60.17
2023-04-25T23:08:22.400Z,60.48
2023-04-25T23:10:49.907Z,61.70
2023-04-25T23:13:17.792Z,61.27
2023-04-25T23:15:45.446Z,60.83
2023-04-25T23:18:13.016Z,61.39
2023-04-25T23:20:40.868Z,61.16
2023-04-25T23:23:09.753Z,61.55
2023-04-25T23:25:39.800Z,60.72
2023-04-25T23:28:07.797Z,61.05
2023-04-25T23:30:35.371Z,62.05
2023-04-25T23:33:04.018Z,62.36
2023-04-25T23:35:31.701Z,61.80
2023-04-25T23:37:59.385Z,62.93
2023-04-25T23:40:28.988Z,62.99
2023-04-25T23:42:56.480Z,63.27
2023-04-25T23:45:24.529Z,63.54
2023-04-25T23:47:52.529Z,63.30
2023-04-25T23:50:20.304Z,65.35
2023-04-25T23:52:48.130Z,65.92
2023-04-25T23:55:15.801Z,65.65
2023-04-25T23:57:44.699Z,65.75
